Calmar/Wizard Lake Airport

CWL3 · 艾伯塔, 加拿大

罗盘
风向 的 风向 190° Calmar/Wizard Lake Airport 8/26
风: 7 kt, 3 beaufort

2 kt

7 kt
改变
0 6.000 12.000 18.000 24.000 30.000
BKN 9.200 ft
BKN 25.000 ft
METAR CYEG 072200Z 19007KT 20SM BKN092 BKN250 M05/M10 A2972 RMK AC7CI1 CI TR SLP118

METAR Calmar/Wizard Lake Airport - CWL3

Calmar/Wizard Lake Airport是,加拿大中的小机场。 该机场有2条跑道: 8/26 和 16/34. 该领域的国际民航组织标志是CWL3.

这份报告是针对2022年12月7日 15:00, 当地时间在Edmonton International Airport进行的。

机场观察

风向为190°,速度为7 kt。

可见度为20 mi。

有碎云在9.200 ft的高度 和 碎云在25.000 ft的高度。 破损或更高的上限为9.200 ft。

温度为-5 °C,阵风为-12 °C。 露点为-10 °C,相对湿度为68%。 海平面上的气压为29,72 inHg (QNH)。

白天

今天,太阳从08:34升起,在16:18降落。 这适用于Calmar/Wizard Lake Airport,世界夏令时可能有所不同。 当地时间与世界标准时间之间的时差为-7 小时。 当前,没有夏令时有效。

公司介绍

我们没有关于这个机场的公司信息。

体会

到Vliegles.nl去找飞行课程,跳伞和其他飞行体验。 浏览页面,了解Calmar/Wizard Lake Airport附近所有可用的活动。 你也可以使用搜索功能来寻找你所在地附近的特定飞行课程、跳伞或其他飞行体验。

跑道

Id 标题 侧风 逆风 侧风 %
8/26 080°-260° 7 kt 2 kt 94 %
16/34 160°-340° 4 kt 6 kt 50 %

逆风成分最大的方向会被突出显示,并用于横风计算。 这并不一定意味着这个方向在使用。

乌云

9.200 ft BKN 碎云
25.000 ft BKN 碎云

温度 & 天气

温度 -5 °C
露点 -10 °C
相对湿度 68%
风寒 -12 °C
Kp-index 2 (0-9)

评论

SLP118海平面压力为29,88 inHg (29,88 inHg)
AC7CI1 CI TR

白天

日出
08:34
中午
12:25
日落
16:16 (26m)

小工具

你想在你的网站上有一个关于Calmar/Wizard Lake Airport的当前航空天气(METAR)的小部件吗?

显示HTML代码

我们和第三方通过cookies跟踪您在我们网站上的互联网行为。如果你继续,我们认为你同意我们的饼干政策